Time;durP1;ratioP1;P1;durP2;ratioP2;P2;SDS_P1;SDS_P2;PMS_P1;PMS_P2;Temp;Humidity;BMP_temperature;BMP_pressure;BME280_temperature;BME280_humidity;BME280_pressure;Samples;Min_cycle;Max_cycle;Signal;HPM_P1;HPM_P2
2021/01/05 00:00:54;;;;;;;7.05;2.45;;;5.70;84.80;;;;;;5089875;28;20035;-59
2021/01/05 00:03:20;;;;;;;3.88;1.40;;;5.70;84.90;;;;;;5078384;28;20043;-59
2021/01/05 00:05:46;;;;;;;1.80;1.60;;;5.60;85.00;;;;;;5078220;28;20034;-59
2021/01/05 00:08:11;;;;;;;3.53;1.95;;;5.70;85.10;;;;;;5079745;28;20049;-59
2021/01/05 00:10:37;;;;;;;3.72;1.67;;;5.70;85.20;;;;;;5077726;28;20056;-59
2021/01/05 00:13:03;;;;;;;4.28;1.40;;;5.70;85.20;;;;;;5081215;28;20070;-59
2021/01/05 00:15:28;;;;;;;2.85;1.35;;;5.70;85.10;;;;;;5076520;28;20025;-59
2021/01/05 00:17:54;;;;;;;4.13;1.95;;;5.70;85.10;;;;;;5080248;28;20032;-59
2021/01/05 00:20:28;;;;;;;5.10;2.10;;;5.70;85.10;;;;;;5093438;28;20379;-59
2021/01/05 00:22:54;;;;;;;3.47;1.45;;;5.70;85.20;;;;;;5092860;28;20130;-59
2021/01/05 00:25:20;;;;;;;4.18;1.48;;;5.70;85.20;;;;;;5093220;28;20545;-59
2021/01/05 00:27:46;;;;;;;5.05;1.75;;;5.70;85.50;;;;;;5093363;28;20082;-59
2021/01/05 00:30:24;;;;;;;2.30;1.65;;;5.70;85.20;;;;;;5092413;28;20028;-59
2021/01/05 00:32:52;;;;;;;2.42;1.58;;;5.70;85.00;;;;;;5093451;28;20448;-59
2021/01/05 00:35:21;;;;;;;5.68;2.70;;;5.70;85.10;;;;;;5092741;28;20020;-60
2021/01/05 00:37:51;;;;;;;4.90;2.10;;;5.70;85.10;;;;;;5093210;28;20529;-59
2021/01/05 00:40:19;;;;;;;2.90;1.25;;;5.70;85.00;;;;;;5093088;28;20078;-59
2021/01/05 00:42:46;;;;;;;6.72;2.05;;;5.70;85.10;;;;;;5092655;28;20071;-59
2021/01/05 00:45:19;;;;;;;4.15;1.65;;;5.70;85.00;;;;;;5093052;28;20427;-59
2021/01/05 00:47:45;;;;;;;3.00;1.60;;;5.70;85.00;;;;;;5093302;28;20036;-59
2021/01/05 00:50:11;;;;;;;2.08;1.77;;;5.70;85.10;;;;;;5092305;28;20028;-59
2021/01/05 00:52:38;;;;;;;7.43;2.63;;;5.70;85.20;;;;;;5091358;28;20499;-59
2021/01/05 00:55:05;;;;;;;3.35;1.65;;;5.70;85.20;;;;;;5091608;28;20439;-59
2021/01/05 00:57:31;;;;;;;6.05;2.00;;;5.70;85.20;;;;;;5092262;28;20076;-60
2021/01/05 00:59:56;;;;;;;3.80;1.33;;;5.70;85.30;;;;;;5091467;28;20146;-59
2021/01/05 01:02:23;;;;;;;4.85;2.58;;;5.70;85.20;;;;;;5091328;28;20058;-59
2021/01/05 01:04:49;;;;;;;6.47;2.55;;;5.70;85.20;;;;;;5090901;28;20078;-59
2021/01/05 01:07:15;;;;;;;2.33;1.42;;;5.70;85.20;;;;;;5091623;28;20054;-59
2021/01/05 01:09:41;;;;;;;2.95;1.65;;;5.70;85.20;;;;;;5091231;28;20544;-59
2021/01/05 01:12:14;;;;;;;4.82;1.70;;;5.70;85.30;;;;;;5092381;28;20028;-59
2021/01/05 01:14:43;;;;;;;4.68;1.50;;;5.70;85.20;;;;;;5091360;28;20068;-59
2021/01/05 01:17:09;;;;;;;2.10;1.50;;;5.70;85.20;;;;;;5091476;28;20419;-59
2021/01/05 01:19:35;;;;;;;2.97;1.50;;;5.70;85.30;;;;;;5080524;28;20108;-60
2021/01/05 01:22:04;;;;;;;4.65;2.25;;;5.70;85.30;;;;;;5091285;28;20499;-60
2021/01/05 01:24:31;;;;;;;4.80;2.25;;;5.70;85.40;;;;;;5092324;28;20048;-60
2021/01/05 01:26:56;;;;;;;6.65;2.17;;;5.70;85.10;;;;;;5091157;28;20035;-59
2021/01/05 01:29:24;;;;;;;5.05;2.25;;;5.70;85.20;;;;;;5092591;28;20028;-60
2021/01/05 01:31:51;;;;;;;8.27;2.30;;;5.70;85.50;;;;;;5090679;28;20020;-60
2021/01/05 01:34:19;;;;;;;9.13;2.33;;;5.70;85.50;;;;;;5092647;28;20035;-60
2021/01/05 01:37:00;;;;;;;3.63;1.88;;;5.70;85.60;;;;;;5091244;28;20556;-60
2021/01/05 01:39:27;;;;;;;9.57;2.30;;;5.70;85.60;;;;;;5090531;28;20072;-60
2021/01/05 01:41:54;;;;;;;1.77;1.20;;;5.70;85.60;;;;;;5091337;28;20035;-60
2021/01/05 01:44:28;;;;;;;3.08;1.67;;;5.70;85.50;;;;;;5091145;28;20036;-60
2021/01/05 01:47:06;;;;;;;4.60;1.55;;;5.70;85.50;;;;;;5090331;28;20384;-60
2021/01/05 01:49:33;;;;;;;2.10;1.15;;;5.70;85.60;;;;;;5091234;28;20054;-60
2021/01/05 01:52:00;;;;;;;1.90;1.50;;;5.70;85.60;;;;;;5091112;28;20032;-59
2021/01/05 01:54:47;;;;;;;7.57;2.28;;;5.70;85.70;;;;;;5090361;28;20028;-60
2021/01/05 01:58:02;;;;;;;4.00;1.77;;;5.70;85.70;;;;;;5091124;28;20024;-60
2021/01/05 02:00:40;;;;;;;;;;;5.70;85.80;;;;;;5090568;28;20174;-60
2021/01/05 02:03:18;;;;;;;3.08;1.63;;;5.70;85.80;;;;;;5091126;28;19922;-60
2021/01/05 02:06:23;;;;;;;3.70;1.85;;;5.70;85.60;;;;;;5080023;28;20028;-60
2021/01/05 02:08:56;;;;;;;6.35;1.85;;;5.70;85.80;;;;;;5094086;28;20024;-60
2021/01/05 02:11:35;;;;;;;9.50;2.63;;;5.60;85.80;;;;;;5094750;28;20031;-60
2021/01/05 02:14:37;;;;;;;2.03;1.15;;;5.70;85.90;;;;;;5093843;28;20123;-60
2021/01/05 02:17:27;;;;;;;2.90;1.88;;;5.60;85.90;;;;;;5095620;28;20403;-60
2021/01/05 02:19:57;;;;;;;7.20;2.13;;;5.60;85.90;;;;;;5094652;28;20484;-60
2021/01/05 02:22:45;;;;;;;4.50;2.42;;;5.70;85.90;;;;;;5094836;28;20032;-60
2021/01/05 02:25:37;;;;;;;5.22;1.98;;;5.60;86.00;;;;;;5095742;28;20428;-59
2021/01/05 02:28:07;;;;;;;6.75;2.58;;;5.60;86.10;;;;;;5079389;28;20077;-61
2021/01/05 02:30:43;;;;;;;6.70;2.78;;;5.60;86.00;;;;;;5087496;28;20039;-62
2021/01/05 02:33:30;;;;;;;6.82;1.58;;;5.70;86.10;;;;;;5091028;28;20024;-60
2021/01/05 02:36:19;;;;;;;3.33;1.73;;;5.70;86.00;;;;;;5079344;28;20028;-60
2021/01/05 02:39:40;;;;;;;6.43;2.33;;;5.70;85.90;;;;;;5086358;28;20048;-60
2021/01/05 02:42:46;;;;;;;3.55;1.58;;;5.70;86.00;;;;;;5078667;28;20090;-60
2021/01/05 02:45:33;;;;;;;3.40;2.15;;;5.60;85.90;;;;;;5079416;28;20043;-60
2021/01/05 02:48:30;;;;;;;3.42;2.10;;;5.70;85.90;;;;;;5083491;28;20027;-60
2021/01/05 02:51:52;;;;;;;9.27;2.22;;;5.70;86.00;;;;;;5080137;28;20487;-60
2021/01/05 02:54:50;;;;;;;4.00;1.98;;;5.70;86.00;;;;;;5085136;28;20039;-60
2021/01/05 02:58:01;;;;;;;5.22;2.35;;;5.70;86.10;;;;;;5086532;28;20396;-59
2021/01/05 03:01:39;;;;;;;3.97;2.22;;;5.70;86.20;;;;;;5078803;28;20051;-60
2021/01/05 03:04:23;;;;;;;3.97;1.80;;;5.60;86.00;;;;;;5078331;28;20458;-60
2021/01/05 03:07:18;;;;;;;;;;;5.70;86.00;;;;;;5079560;28;20034;-59
2021/01/05 03:10:24;;;;;;;4.80;2.33;;;5.60;86.10;;;;;;5080559;28;19915;-60
2021/01/05 03:13:24;;;;;;;5.57;2.85;;;5.60;86.10;;;;;;5084955;28;20071;-59
2021/01/05 03:16:15;;;;;;;5.32;2.05;;;5.60;86.30;;;;;;5078808;28;20044;-59
2021/01/05 03:19:16;;;;;;;7.00;2.10;;;5.70;86.30;;;;;;5077961;28;20039;-60
2021/01/05 03:22:04;;;;;;;5.90;2.03;;;5.70;86.50;;;;;;5081616;28;20117;-60
2021/01/05 03:24:49;;;;;;;3.92;2.05;;;5.70;86.40;;;;;;5085995;28;20097;-60
2021/01/05 03:27:34;;;;;;;9.88;2.47;;;5.70;86.30;;;;;;5080901;28;20035;-60
2021/01/05 03:30:40;;;;;;;2.92;1.63;;;5.70;86.30;;;;;;5094510;28;20075;-60
2021/01/05 03:33:25;;;;;;;6.50;2.30;;;5.80;86.50;;;;;;5082486;28;20034;-60
2021/01/05 03:36:29;;;;;;;3.00;2.13;;;5.80;86.30;;;;;;5072035;28;20109;-60
2021/01/05 03:39:13;;;;;;;;;;;5.70;86.10;;;;;;5071584;28;20083;-61
2021/01/05 03:41:57;;;;;;;2.53;1.83;;;5.80;86.20;;;;;;5082954;28;19914;-60
2021/01/05 03:44:41;;;;;;;2.13;1.58;;;5.80;86.10;;;;;;5094094;28;20085;-60
2021/01/05 03:47:25;;;;;;;;;;;5.70;86.30;;;;;;5094046;28;20039;-60
2021/01/05 03:50:10;;;;;;;5.93;1.73;;;5.70;86.30;;;;;;5094194;28;19931;-60
2021/01/05 03:52:54;;;;;;;3.45;1.77;;;5.80;86.20;;;;;;5093268;28;20062;-60
2021/01/05 03:55:38;;;;;;;3.75;1.80;;;5.80;86.40;;;;;;5094132;28;20042;-59
2021/01/05 03:58:23;;;;;;;;;;;5.70;86.50;;;;;;5094296;28;20043;-59
2021/01/05 04:01:07;;;;;;;5.30;1.90;;;5.70;86.70;;;;;;5093330;28;19970;-59
2021/01/05 04:03:33;;;;;;;5.90;2.13;;;5.80;86.50;;;;;;5093593;28;20071;-60
2021/01/05 04:05:58;;;;;;;2.88;1.58;;;5.80;86.50;;;;;;5093903;28;20032;-59
2021/01/05 04:08:24;;;;;;;7.57;2.00;;;5.80;86.70;;;;;;5092998;28;20369;-60
2021/01/05 04:10:50;;;;;;;11.90;4.10;;;5.80;86.80;;;;;;5093813;28;20024;-60
2021/01/05 04:13:16;;;;;;;5.90;1.75;;;5.80;86.80;;;;;;5093767;28;20110;-60
2021/01/05 04:15:41;;;;;;;6.15;2.33;;;5.80;86.60;;;;;;5093132;28;20031;-60
2021/01/05 04:18:08;;;;;;;4.85;1.85;;;5.80;86.60;;;;;;5093836;28;20399;-60
2021/01/05 04:20:35;;;;;;;5.63;2.85;;;5.90;86.60;;;;;;5092752;28;20107;-60
2021/01/05 04:23:00;;;;;;;2.78;1.98;;;5.80;86.30;;;;;;5093566;28;20055;-60
2021/01/05 04:25:28;;;;;;;6.30;1.73;;;5.80;86.30;;;;;;5093261;28;20467;-60
2021/01/05 04:27:54;;;;;;;5.60;2.50;;;5.80;86.30;;;;;;5092166;28;20032;-60
2021/01/05 04:30:32;;;;;;;3.55;1.92;;;5.80;86.40;;;;;;5093644;28;20081;-60
2021/01/05 04:33:01;;;;;;;5.38;2.08;;;5.90;86.20;;;;;;5093372;28;20035;-60
2021/01/05 04:35:27;;;;;;;2.85;1.70;;;5.90;86.30;;;;;;5092615;28;20040;-60
2021/01/05 04:37:54;;;;;;;4.22;1.38;;;5.80;86.20;;;;;;5093081;28;20024;-60
2021/01/05 04:40:23;;;;;;;7.38;2.13;;;5.90;86.30;;;;;;5093492;28;20038;-60
2021/01/05 04:42:55;;;;;;;4.63;2.10;;;5.90;86.20;;;;;;5092430;28;20101;-60
2021/01/05 04:45:22;;;;;;;5.97;2.10;;;5.80;86.20;;;;;;5093220;28;20378;-59
2021/01/05 04:48:18;;;;;;;4.03;1.75;;;5.90;86.20;;;;;;5092988;28;20422;-59
2021/01/05 04:50:50;;;;;;;3.15;1.45;;;5.90;86.10;;;;;;5092466;28;20502;-60
2021/01/05 04:53:30;;;;;;;4.32;1.95;;;5.90;86.00;;;;;;5093049;28;20039;-60
2021/01/05 04:56:11;;;;;;;5.47;2.42;;;5.80;85.80;;;;;;5092490;28;20063;-60
2021/01/05 04:58:56;;;;;;;4.88;1.80;;;5.80;86.00;;;;;;5092954;28;20035;-60
2021/01/05 05:01:26;;;;;;;3.72;2.00;;;5.80;86.10;;;;;;5092690;28;20051;-60
2021/01/05 05:04:16;;;;;;;5.43;1.63;;;5.80;86.10;;;;;;5092213;28;20563;-61
2021/01/05 05:06:47;;;;;;;3.90;2.00;;;5.90;86.20;;;;;;5092764;28;20032;-60
2021/01/05 05:09:19;;;;;;;3.78;1.73;;;5.80;86.10;;;;;;5092878;28;20040;-59
2021/01/05 05:12:03;;;;;;;1.60;1.25;;;5.80;86.20;;;;;;5092213;28;20127;-60
2021/01/05 05:14:31;;;;;;;;;;;5.80;86.20;;;;;;5093392;28;20035;-59
2021/01/05 05:17:38;;;;;;;4.82;1.80;;;5.80;86.40;;;;;;5091946;28;19908;-60
2021/01/05 05:20:26;;;;;;;1.70;1.27;;;5.90;86.20;;;;;;5092576;28;20399;-60
2021/01/05 05:23:04;;;;;;;2.88;2.17;;;5.90;86.20;;;;;;5092794;28;20054;-59
2021/01/05 05:25:41;;;;;;;5.85;2.38;;;5.80;86.30;;;;;;5091908;28;20093;-60
2021/01/05 05:28:24;;;;;;;4.50;1.90;;;5.80;86.30;;;;;;5092636;28;20077;-59
2021/01/05 05:30:49;;;;;;;2.85;1.58;;;5.80;86.40;;;;;;5091982;28;20060;-60
2021/01/05 05:33:18;;;;;;;4.07;1.75;;;5.90;86.40;;;;;;5092721;28;20058;-60
2021/01/05 05:36:25;;;;;;;4.32;1.80;;;5.90;86.50;;;;;;5092601;28;20035;-60
2021/01/05 05:39:15;;;;;;;2.88;2.00;;;5.90;86.40;;;;;;5091760;28;20028;-60
2021/01/05 05:42:01;;;;;;;4.90;2.95;;;5.80;86.20;;;;;;5083355;28;20026;-59
2021/01/05 05:44:48;;;;;;;6.53;1.92;;;5.90;86.30;;;;;;5096344;28;20083;-60
2021/01/05 05:47:30;;;;;;;5.03;1.77;;;5.90;86.20;;;;;;5096415;28;20024;-60
2021/01/05 05:50:08;;;;;;;11.15;2.22;;;5.90;86.20;;;;;;5096448;28;20024;-59
2021/01/05 05:53:09;;;;;;;3.45;1.60;;;5.90;86.10;;;;;;5095732;28;20085;-60
2021/01/05 05:56:01;;;;;;;1.42;1.30;;;5.90;86.30;;;;;;5085613;28;20140;-59
2021/01/05 05:58:34;;;;;;;3.20;2.03;;;5.90;86.20;;;;;;5096296;28;20440;-60
2021/01/05 06:01:03;;;;;;;5.25;2.47;;;5.90;86.30;;;;;;5095520;28;20155;-60
2021/01/05 06:03:29;;;;;;;6.82;2.28;;;5.90;86.30;;;;;;5095794;28;20048;-60
2021/01/05 06:05:55;;;;;;;4.47;2.20;;;5.90;86.30;;;;;;5095407;28;20032;-60
2021/01/05 06:08:22;;;;;;;7.70;2.00;;;5.90;86.20;;;;;;5092102;28;20107;-60
2021/01/05 06:10:49;;;;;;;3.45;1.83;;;5.90;86.10;;;;;;5095959;28;20070;-60
2021/01/05 06:13:15;;;;;;;12.15;2.47;;;5.90;86.10;;;;;;5087665;28;20043;-60
2021/01/05 06:15:41;;;;;;;7.18;2.17;;;5.90;86.20;;;;;;5091905;28;20474;-61
2021/01/05 06:18:12;;;;;;;6.60;2.25;;;5.90;86.30;;;;;;5089648;28;20059;-61
2021/01/05 06:20:38;;;;;;;4.35;3.60;;;5.90;86.10;;;;;;5087465;28;20058;-61
2021/01/05 06:23:04;;;;;;;4.75;2.70;;;5.90;86.10;;;;;;5083407;28;20072;-63
2021/01/05 06:25:30;;;;;;;4.07;2.10;;;5.90;86.00;;;;;;5091415;28;20039;-61
2021/01/05 06:27:56;;;;;;;5.45;1.63;;;6.00;86.00;;;;;;5094066;28;20028;-60
2021/01/05 06:30:22;;;;;;;4.20;2.05;;;5.90;85.90;;;;;;5085492;28;20479;-61
2021/01/05 06:32:48;;;;;;;3.30;2.17;;;5.90;85.90;;;;;;5091669;28;20032;-61
2021/01/05 06:35:16;;;;;;;5.35;1.55;;;5.90;86.00;;;;;;5094159;28;20039;-61
2021/01/05 06:37:42;;;;;;;5.20;2.08;;;5.90;85.90;;;;;;5092285;28;20028;-61
2021/01/05 06:40:09;;;;;;;5.03;1.45;;;5.90;86.00;;;;;;5084472;28;20154;-61
2021/01/05 06:42:36;;;;;;;9.63;1.88;;;5.90;86.10;;;;;;5094220;28;20020;-62
2021/01/05 06:45:02;;;;;;;9.75;2.17;;;5.90;86.20;;;;;;5083549;28;20029;-61
2021/01/05 06:47:28;;;;;;;3.25;1.98;;;5.90;85.90;;;;;;5081846;28;20020;-61
2021/01/05 06:49:54;;;;;;;8.38;2.60;;;5.90;86.00;;;;;;5089604;28;20378;-60
2021/01/05 06:52:19;;;;;;;3.92;1.95;;;5.90;86.00;;;;;;5085467;28;20024;-60
2021/01/05 06:54:45;;;;;;;3.05;1.73;;;5.90;85.90;;;;;;5094678;28;20028;-60
2021/01/05 06:57:11;;;;;;;7.88;2.78;;;5.90;85.90;;;;;;5093207;28;20467;-60
2021/01/05 06:59:36;;;;;;;4.10;2.40;;;5.90;85.90;;;;;;5091990;28;20493;-62
2021/01/05 07:02:06;;;;;;;2.30;1.48;;;5.90;85.90;;;;;;5093037;28;20040;-61
2021/01/05 07:04:32;;;;;;;3.20;1.67;;;5.90;85.90;;;;;;5089451;28;20032;-61
2021/01/05 07:06:58;;;;;;;3.80;2.03;;;5.90;85.90;;;;;;5075422;28;20389;-61
2021/01/05 07:09:25;;;;;;;3.55;1.58;;;5.90;85.90;;;;;;5074838;28;20095;-61
2021/01/05 07:11:51;;;;;;;3.40;1.75;;;5.90;85.90;;;;;;5077468;28;20016;-61
2021/01/05 07:14:19;;;;;;;3.25;1.42;;;5.90;85.80;;;;;;5082174;28;20103;-61
2021/01/05 07:16:45;;;;;;;5.45;1.52;;;5.90;85.80;;;;;;5091500;28;20036;-60
2021/01/05 07:19:11;;;;;;;2.13;1.60;;;5.90;85.90;;;;;;5093531;28;20118;-61
2021/01/05 07:21:36;;;;;;;3.47;1.50;;;5.90;86.00;;;;;;5088520;28;20036;-60
2021/01/05 07:24:03;;;;;;;5.10;1.42;;;5.90;86.00;;;;;;5092282;28;20470;-61
2021/01/05 07:26:32;;;;;;;2.92;1.50;;;5.90;86.00;;;;;;5091806;28;20495;-61
2021/01/05 07:28:58;;;;;;;3.75;1.98;;;5.90;85.90;;;;;;5092629;28;20038;-64
2021/01/05 07:31:23;;;;;;;3.28;1.13;;;5.90;86.00;;;;;;5092553;28;20019;-65
2021/01/05 07:33:49;;;;;;;3.58;1.30;;;5.90;85.90;;;;;;5092929;28;20525;-63
2021/01/05 07:36:36;;;;;;;3.42;1.23;;;5.90;86.00;;;;;;5084595;28;20016;-64
2021/01/05 07:39:21;;;;;;;2.97;1.45;;;5.90;85.90;;;;;;5092605;28;20089;-64
2021/01/05 07:41:49;;;;;;;4.28;1.52;;;5.90;85.90;;;;;;5076555;28;20029;-63
2021/01/05 07:44:15;;;;;;;3.58;2.13;;;6.00;86.10;;;;;;5072069;28;20037;-62
2021/01/05 07:46:41;;;;;;;1.65;1.20;;;5.90;85.90;;;;;;5076326;28;20024;-66
2021/01/05 07:49:07;;;;;;;1.60;1.00;;;5.90;85.90;;;;;;5077172;28;20031;-62
2021/01/05 07:51:33;;;;;;;3.00;1.42;;;5.90;85.90;;;;;;5088738;28;20025;-62
2021/01/05 07:53:59;;;;;;;2.10;1.60;;;5.90;85.90;;;;;;5087281;28;20085;-62
2021/01/05 07:56:24;;;;;;;5.03;1.42;;;5.90;86.00;;;;;;5087869;28;20062;-63
2021/01/05 07:58:50;;;;;;;3.72;1.25;;;5.90;86.00;;;;;;5091007;28;20373;-63
2021/01/05 08:01:16;;;;;;;5.70;2.13;;;5.90;86.00;;;;;;5090580;28;20036;-60
2021/01/05 08:03:41;;;;;;;4.35;1.95;;;5.90;85.90;;;;;;5091242;28;20035;-59
2021/01/05 08:06:08;;;;;;;5.95;2.03;;;5.90;86.00;;;;;;5091696;28;20058;-60
2021/01/05 08:08:34;;;;;;;2.38;1.30;;;5.90;85.90;;;;;;5091693;28;20031;-60
2021/01/05 08:10:59;;;;;;;2.90;1.10;;;5.90;85.90;;;;;;5092607;28;20028;-60
2021/01/05 08:13:25;;;;;;;2.10;0.95;;;5.90;85.90;;;;;;5084492;28;20024;-60
2021/01/05 08:15:51;;;;;;;1.42;1.13;;;5.90;85.90;;;;;;5087621;28;20031;-60
2021/01/05 08:18:17;;;;;;;2.08;1.52;;;5.90;86.10;;;;;;5083269;28;20029;-60
2021/01/05 08:20:42;;;;;;;2.33;1.35;;;5.90;85.90;;;;;;5087080;28;20040;-61
2021/01/05 08:23:08;;;;;;;2.28;1.35;;;5.90;85.90;;;;;;5085004;28;20040;-60
2021/01/05 08:25:34;;;;;;;2.53;0.98;;;6.00;86.00;;;;;;5086311;28;20031;-60
2021/01/05 08:28:00;;;;;;;2.53;1.20;;;5.90;85.90;;;;;;5091846;28;20120;-61
2021/01/05 08:30:33;;;;;;;1.58;1.20;;;5.90;85.90;;;;;;5092523;28;20490;-61
2021/01/05 08:33:02;;;;;;;5.20;1.95;;;5.90;85.90;;;;;;5092069;28;20085;-60
2021/01/05 08:35:27;;;;;;;2.88;1.60;;;5.90;85.90;;;;;;5091518;28;20032;-60
2021/01/05 08:37:53;;;;;;;2.45;1.27;;;5.90;85.90;;;;;;5091800;28;20114;-61
2021/01/05 08:40:29;;;;;;;3.75;1.88;;;5.90;86.00;;;;;;5084246;28;20495;-61
2021/01/05 08:42:56;;;;;;;3.53;1.65;;;5.90;86.00;;;;;;5084275;28;20071;-60
2021/01/05 08:45:22;;;;;;;3.45;1.50;;;5.90;86.10;;;;;;5089785;28;20071;-60
2021/01/05 08:47:49;;;;;;;3.17;1.33;;;5.90;86.00;;;;;;5086641;28;20484;-60
2021/01/05 08:50:21;;;;;;;1.67;1.13;;;5.90;86.10;;;;;;5088615;28;20020;-62
2021/01/05 08:52:47;;;;;;;5.68;1.77;;;5.90;86.20;;;;;;5091918;28;20028;-60
2021/01/05 08:55:14;;;;;;;4.80;1.67;;;5.90;86.00;;;;;;5087831;28;20026;-60
2021/01/05 08:57:39;;;;;;;9.00;1.85;;;5.90;86.00;;;;;;5086632;28;20037;-60
2021/01/05 09:00:07;;;;;;;5.50;1.98;;;5.90;86.00;;;;;;5083616;28;20044;-60
2021/01/05 09:02:32;;;;;;;4.47;2.13;;;5.90;86.10;;;;;;5080934;28;20445;-60
2021/01/05 09:04:58;;;;;;;4.05;1.65;;;5.90;86.10;;;;;;5081479;28;20131;-60
2021/01/05 09:07:24;;;;;;;1.55;1.00;;;5.90;86.00;;;;;;5083306;28;20383;-62
2021/01/05 09:09:51;;;;;;;4.05;1.70;;;5.90;86.10;;;;;;5083687;28;20024;-61
2021/01/05 09:12:17;;;;;;;1.83;1.23;;;5.90;86.10;;;;;;5081864;28;20361;-62
2021/01/05 09:14:43;;;;;;;2.33;1.77;;;5.90;86.10;;;;;;5073419;28;20078;-66
2021/01/05 09:17:09;;;;;;;3.83;1.70;;;5.90;86.00;;;;;;5073002;28;20032;-60
2021/01/05 09:19:34;;;;;;;3.55;1.83;;;5.90;85.90;;;;;;5079959;28;20035;-61
2021/01/05 09:22:00;;;;;;;3.55;1.60;;;5.90;86.00;;;;;;5083041;28;20032;-61
2021/01/05 09:24:25;;;;;;;4.32;1.77;;;6.00;86.00;;;;;;5081045;28;20135;-60
2021/01/05 09:26:53;;;;;;;5.78;2.08;;;6.00;86.10;;;;;;5086662;28;20020;-60
2021/01/05 09:29:19;;;;;;;2.67;1.55;;;6.00;86.10;;;;;;5086648;28;20446;-60
2021/01/05 09:31:47;;;;;;;1.40;1.10;;;6.00;86.10;;;;;;5076118;28;20032;-62
2021/01/05 09:34:15;;;;;;;8.80;2.53;;;6.00;86.10;;;;;;5083492;28;20127;-61
2021/01/05 09:36:41;;;;;;;5.97;1.60;;;6.00;86.00;;;;;;5091233;28;20055;-62
2021/01/05 09:39:11;;;;;;;3.40;1.50;;;5.90;86.00;;;;;;5083333;28;20083;-60
2021/01/05 09:41:49;;;;;;;4.72;1.77;;;5.90;85.90;;;;;;5074458;28;20063;-61
2021/01/05 09:44:15;;;;;;;6.00;1.92;;;5.90;86.10;;;;;;5079420;28;20044;-61
2021/01/05 09:46:42;;;;;;;5.35;2.20;;;6.00;86.00;;;;;;5098738;28;20024;-61
2021/01/05 09:49:12;;;;;;;13.27;2.35;;;5.90;86.00;;;;;;5088165;28;20114;-60
2021/01/05 09:51:39;;;;;;;2.78;1.90;;;5.90;86.10;;;;;;5087019;28;20070;-61
2021/01/05 09:54:05;;;;;;;4.35;2.60;;;5.90;86.20;;;;;;5080024;28;20093;-61
2021/01/05 09:56:31;;;;;;;1.52;1.38;;;6.00;86.70;;;;;;5081368;28;20387;-60
2021/01/05 09:58:57;;;;;;;3.88;1.77;;;5.90;86.10;;;;;;5071255;28;20020;-61
2021/01/05 10:01:31;;;;;;;3.25;1.45;;;6.00;86.10;;;;;;5080125;28;20503;-63
2021/01/05 10:03:57;;;;;;;7.07;1.85;;;5.90;86.10;;;;;;5075029;28;20037;-61
2021/01/05 10:06:34;;;;;;;5.38;2.00;;;5.90;86.10;;;;;;5087075;28;20031;-61
2021/01/05 10:09:07;;;;;;;2.50;1.60;;;5.90;86.10;;;;;;5073937;28;20054;-62
2021/01/05 10:11:34;;;;;;;4.63;2.40;;;6.00;86.10;;;;;;5080092;28;20443;-60
2021/01/05 10:13:59;;;;;;;5.40;2.13;;;5.90;86.10;;;;;;5077960;28;20472;-60
2021/01/05 10:16:26;;;;;;;5.07;2.30;;;6.00;86.20;;;;;;5080816;28;20090;-60
2021/01/05 10:18:51;;;;;;;6.13;2.38;;;6.00;86.20;;;;;;5086036;28;20105;-60
2021/01/05 10:21:17;;;;;;;6.45;2.35;;;5.90;86.10;;;;;;5089321;28;20491;-61
2021/01/05 10:23:43;;;;;;;5.20;2.00;;;5.90;86.10;;;;;;5087226;28;20384;-62
2021/01/05 10:26:09;;;;;;;6.32;2.42;;;6.00;86.20;;;;;;5084864;28;20043;-63
2021/01/05 10:28:36;;;;;;;5.75;2.22;;;5.90;86.20;;;;;;5082824;28;20078;-63
2021/01/05 10:31:02;;;;;;;3.88;2.03;;;6.00;86.20;;;;;;5084243;28;20490;-63
2021/01/05 10:33:29;;;;;;;2.55;1.85;;;6.00;86.30;;;;;;5087218;28;20028;-60
2021/01/05 10:35:54;;;;;;;6.80;2.35;;;6.00;86.20;;;;;;5091615;28;20029;-60
2021/01/05 10:38:20;;;;;;;4.05;1.85;;;6.00;86.30;;;;;;5085689;28;20089;-60
2021/01/05 10:40:46;;;;;;;4.20;2.92;;;6.00;86.20;;;;;;5093385;28;20024;-60
2021/01/05 10:43:12;;;;;;;6.25;2.28;;;6.00;86.30;;;;;;5087465;28;20436;-60
2021/01/05 10:45:40;;;;;;;2.83;1.58;;;6.00;86.20;;;;;;5079950;28;20085;-60
2021/01/05 10:48:07;;;;;;;3.38;1.83;;;6.00;86.20;;;;;;5078551;28;20028;-61
2021/01/05 10:50:33;;;;;;;2.63;1.75;;;6.00;86.20;;;;;;5073806;28;20039;-60
2021/01/05 10:52:59;;;;;;;1.38;1.13;;;6.10;86.20;;;;;;5089064;28;20379;-61
2021/01/05 10:55:24;;;;;;;2.08;1.48;;;6.10;86.20;;;;;;5084750;28;20035;-64
2021/01/05 10:57:50;;;;;;;4.88;1.77;;;6.10;86.10;;;;;;5080918;28;20032;-61
2021/01/05 11:00:20;;;;;;;2.65;1.50;;;6.10;86.10;;;;;;5076035;28;20044;-61
2021/01/05 11:02:46;;;;;;;1.60;1.42;;;6.10;86.20;;;;;;5075947;28;20384;-61
2021/01/05 11:05:16;;;;;;;8.45;1.85;;;6.10;86.30;;;;;;5079582;28;20032;-61
2021/01/05 11:07:43;;;;;;;4.80;1.83;;;6.10;86.20;;;;;;5076638;28;20020;-60
2021/01/05 11:10:10;;;;;;;1.40;1.20;;;6.10;86.20;;;;;;5079037;28;20145;-60
2021/01/05 11:12:36;;;;;;;5.68;1.77;;;6.00;86.20;;;;;;5076692;28;20020;-60
2021/01/05 11:15:04;;;;;;;5.25;1.60;;;6.10;86.20;;;;;;5078343;28;20035;-61
2021/01/05 11:17:30;;;;;;;4.40;1.70;;;6.10;86.30;;;;;;5076723;28;20052;-60
2021/01/05 11:19:55;;;;;;;3.63;1.67;;;6.10;86.20;;;;;;5076259;28;20522;-60
2021/01/05 11:22:21;;;;;;;2.50;1.38;;;6.10;86.20;;;;;;5078845;28;20028;-61
2021/01/05 11:24:46;;;;;;;1.67;1.23;;;6.10;86.20;;;;;;5076221;28;20072;-61
2021/01/05 11:27:16;;;;;;;5.90;2.08;;;6.10;86.40;;;;;;5090762;28;20110;-60
2021/01/05 11:29:44;;;;;;;8.18;1.88;;;6.10;86.20;;;;;;5078648;28;20028;-60
2021/01/05 11:32:13;;;;;;;7.90;1.80;;;6.10;86.30;;;;;;5093213;28;20029;-61
2021/01/05 11:34:39;;;;;;;2.40;1.52;;;6.20;86.40;;;;;;5080980;28;20036;-59
2021/01/05 11:37:14;;;;;;;5.50;2.20;;;6.10;86.40;;;;;;5092838;28;20494;-59
2021/01/05 11:39:46;;;;;;;5.90;1.90;;;6.10;86.30;;;;;;5090883;28;20476;-60
2021/01/05 11:42:15;;;;;;;6.03;2.35;;;6.20;86.40;;;;;;5087484;28;20035;-60
2021/01/05 11:44:44;;;;;;;6.10;2.13;;;6.20;86.40;;;;;;5091705;28;20036;-60
2021/01/05 11:47:10;;;;;;;3.72;1.98;;;6.20;87.00;;;;;;5078052;28;20162;-60
2021/01/05 11:49:35;;;;;;;2.45;1.45;;;6.20;86.60;;;;;;5083888;28;20110;-61
2021/01/05 11:52:01;;;;;;;4.95;2.13;;;6.20;86.30;;;;;;5077351;28;20046;-60
2021/01/05 11:54:27;;;;;;;3.75;1.77;;;6.20;86.10;;;;;;5076563;28;20479;-60
2021/01/05 11:56:57;;;;;;;5.45;2.47;;;6.20;86.00;;;;;;5080343;28;20036;-60
2021/01/05 11:59:23;;;;;;;3.05;1.58;;;6.20;86.20;;;;;;5075541;28;20029;-61
2021/01/05 12:01:49;;;;;;;7.43;2.00;;;6.20;86.10;;;;;;5079295;28;20028;-63
2021/01/05 12:04:15;;;;;;;3.85;1.80;;;6.20;86.00;;;;;;5085179;28;20035;-60
2021/01/05 12:06:49;;;;;;;6.20;1.88;;;6.30;86.00;;;;;;5084473;28;20032;-60
2021/01/05 12:09:15;;;;;;;3.53;1.92;;;6.20;86.10;;;;;;5093713;28;20047;-65
2021/01/05 12:11:41;;;;;;;2.85;1.58;;;6.20;86.10;;;;;;5088993;28;20031;-60
2021/01/05 12:14:07;;;;;;;5.07;1.85;;;6.20;86.10;;;;;;5090298;28;20101;-60
2021/01/05 12:16:34;;;;;;;4.20;1.90;;;6.20;86.00;;;;;;5089784;28;20546;-60
2021/01/05 12:19:02;;;;;;;4.60;1.55;;;6.30;86.00;;;;;;5090028;28;20038;-60
2021/01/05 12:21:34;;;;;;;5.00;1.67;;;6.20;86.00;;;;;;5090010;28;20036;-60
2021/01/05 12:24:01;;;;;;;5.35;1.80;;;6.20;86.00;;;;;;5090637;28;20079;-60
2021/01/05 12:26:32;;;;;;;4.32;2.28;;;6.20;86.10;;;;;;5077881;28;20480;-60
2021/01/05 12:29:00;;;;;;;2.70;1.65;;;6.20;86.00;;;;;;5089792;28;20115;-60
2021/01/05 12:31:27;;;;;;;2.80;1.30;;;6.20;85.90;;;;;;5081527;28;20020;-60
2021/01/05 12:33:53;;;;;;;2.45;1.63;;;6.20;85.90;;;;;;5088876;28;20066;-60
2021/01/05 12:36:32;;;;;;;4.95;1.90;;;6.30;86.00;;;;;;5088929;28;20032;-60
2021/01/05 12:38:57;;;;;;;3.13;1.35;;;6.20;85.90;;;;;;5089959;28;20089;-60
2021/01/05 12:41:35;;;;;;;3.75;1.63;;;6.20;86.00;;;;;;5080024;28;20027;-60
2021/01/05 12:44:01;;;;;;;3.58;1.48;;;6.20;86.00;;;;;;5092421;28;20406;-60
2021/01/05 12:46:29;;;;;;;2.03;1.50;;;6.20;85.90;;;;;;5089106;28;20039;-60
2021/01/05 12:48:56;;;;;;;7.47;2.08;;;6.20;86.00;;;;;;5086438;28;20086;-61
2021/01/05 12:51:29;;;;;;;3.03;2.08;;;6.20;85.90;;;;;;5083096;28;20074;-60
2021/01/05 12:53:55;;;;;;;4.35;2.25;;;6.20;86.00;;;;;;5087762;28;20046;-60
2021/01/05 12:56:21;;;;;;;6.82;2.50;;;6.20;86.00;;;;;;5082209;28;20020;-60
2021/01/05 12:58:47;;;;;;;9.10;2.60;;;6.20;86.20;;;;;;5078871;28;20454;-60
2021/01/05 13:01:16;;;;;;;6.40;2.50;;;6.20;86.30;;;;;;5078849;28;20040;-60
2021/01/05 13:03:43;;;;;;;7.93;1.70;;;6.20;86.20;;;;;;5075925;28;20028;-60
2021/01/05 13:06:09;;;;;;;2.88;1.50;;;6.20;86.30;;;;;;5076232;28;20468;-60
2021/01/05 13:08:35;;;;;;;4.72;2.05;;;6.20;86.10;;;;;;5079969;28;20039;-60
2021/01/05 13:11:09;;;;;;;8.02;2.40;;;6.20;86.10;;;;;;5086112;28;20028;-60
2021/01/05 13:13:35;;;;;;;;;;;6.30;86.20;;;;;;5080072;28;20035;-60
2021/01/05 13:16:00;;;;;;;4.88;1.65;;;6.20;86.40;;;;;;5076501;28;20261;-60
2021/01/05 13:18:26;;;;;;;7.90;1.98;;;6.30;86.20;;;;;;5083917;28;20035;-60
2021/01/05 13:20:52;;;;;;;4.65;2.30;;;6.30;86.20;;;;;;5085057;28;20110;-60
2021/01/05 13:23:18;;;;;;;8.40;2.28;;;6.30;86.30;;;;;;5088029;28;20605;-60